createdAt,value
2019-02-22T00:00:41.873Z,0.00
2019-02-22T00:01:41.836Z,0.00
2019-02-22T00:02:41.823Z,0.00
2019-02-22T00:03:41.844Z,0.00
2019-02-22T00:04:41.788Z,0.00
2019-02-22T00:05:41.781Z,0.00
2019-02-22T00:06:41.761Z,0.00
2019-02-22T00:07:41.755Z,0.00
2019-02-22T00:08:41.754Z,0.00
2019-02-22T00:09:49.020Z,0.00
2019-02-22T00:10:42.734Z,0.00
2019-02-22T00:11:41.707Z,0.00
2019-02-22T00:12:41.697Z,0.00
2019-02-22T00:13:41.701Z,0.00
2019-02-22T00:14:41.669Z,0.00
2019-02-22T00:15:41.715Z,0.00
2019-02-22T00:16:41.648Z,0.00
2019-02-22T00:17:41.661Z,0.00
2019-02-22T00:18:41.626Z,0.00
2019-02-22T00:19:41.626Z,0.00
2019-02-22T00:20:41.613Z,0.00
2019-02-22T00:21:41.638Z,0.00
2019-02-22T00:22:41.613Z,0.00
2019-02-22T00:23:41.569Z,0.00
2019-02-22T00:24:41.565Z,0.00
2019-02-22T00:25:41.550Z,0.00
2019-02-22T00:26:41.549Z,0.00
2019-02-22T00:27:41.625Z,0.00
2019-02-22T00:28:41.516Z,0.00
2019-02-22T00:29:41.524Z,0.00
2019-02-22T00:30:41.502Z,0.00
2019-02-22T00:31:41.483Z,0.00
2019-02-22T00:32:42.586Z,0.00
2019-02-22T00:33:41.522Z,0.00
2019-02-22T00:34:41.562Z,0.00
2019-02-22T00:35:41.505Z,0.00
2019-02-22T00:36:41.562Z,0.00
2019-02-22T00:37:41.417Z,0.00
2019-02-22T00:38:41.421Z,0.00
2019-02-22T00:39:41.452Z,0.00
2019-02-22T00:40:41.408Z,0.00
2019-02-22T00:41:41.376Z,0.00
2019-02-22T00:42:41.377Z,0.00
2019-02-22T00:43:41.358Z,0.00
2019-02-22T00:44:41.359Z,0.00
2019-02-22T00:45:41.400Z,0.00
2019-02-22T00:46:41.335Z,0.00
2019-02-22T00:47:41.386Z,0.00
2019-02-22T00:48:41.293Z,0.00
2019-02-22T00:49:41.289Z,0.00
2019-02-22T00:50:41.309Z,0.00
2019-02-22T00:51:41.294Z,0.00
2019-02-22T00:52:41.250Z,0.00
2019-02-22T00:53:41.275Z,0.00
2019-02-22T00:54:41.226Z,0.00
2019-02-22T00:55:41.220Z,0.00
2019-02-22T00:56:41.210Z,0.00
2019-02-22T00:57:41.403Z,0.00
2019-02-22T00:58:41.191Z,0.00
2019-02-22T00:59:41.205Z,0.00
2019-02-22T01:00:41.166Z,0.00
2019-02-22T01:01:41.152Z,0.00
2019-02-22T01:02:41.140Z,0.00
2019-02-22T01:03:41.180Z,0.00
2019-02-22T01:04:41.119Z,0.00
2019-02-22T01:05:41.111Z,0.00
2019-02-22T01:06:41.098Z,0.00
2019-02-22T01:07:41.098Z,0.00
2019-02-22T01:08:41.080Z,0.00
2019-02-22T01:09:41.097Z,0.00
2019-02-22T01:10:41.057Z,0.00
2019-02-22T01:11:41.037Z,0.00
2019-02-22T01:12:41.030Z,0.00
2019-02-22T01:13:41.040Z,0.00
2019-02-22T01:14:41.006Z,0.00
2019-02-22T01:15:41.076Z,0.00
2019-02-22T01:16:40.987Z,0.00
2019-02-22T01:17:40.997Z,0.00
2019-02-22T01:18:40.966Z,0.00
2019-02-22T01:19:40.954Z,0.00
2019-02-22T01:20:40.962Z,0.00
2019-02-22T01:21:40.961Z,0.00
2019-02-22T01:22:40.936Z,0.00
2019-02-22T01:23:40.909Z,0.00
2019-02-22T01:24:40.901Z,0.00
2019-02-22T01:25:40.891Z,0.00
2019-02-22T01:26:40.903Z,0.00
2019-02-22T01:27:40.928Z,0.00
2019-02-22T01:28:40.866Z,0.00
2019-02-22T01:29:40.848Z,0.00
2019-02-22T01:30:40.850Z,0.00
2019-02-22T01:31:40.830Z,0.00
2019-02-22T01:32:40.834Z,0.00
2019-02-22T01:33:40.840Z,0.00
2019-02-22T01:34:40.833Z,0.00
2019-02-22T01:35:40.778Z,0.00
2019-02-22T01:36:40.788Z,0.00
2019-02-22T01:37:40.757Z,0.00
2019-02-22T01:38:40.745Z,0.00
2019-02-22T01:39:40.770Z,0.00
2019-02-22T01:40:44.088Z,0.00
2019-02-22T01:41:40.708Z,0.00
2019-02-22T01:42:40.714Z,0.00
2019-02-22T01:43:40.687Z,0.00
2019-02-22T01:44:40.672Z,0.00
2019-02-22T01:45:40.718Z,0.00
2019-02-22T01:46:40.655Z,0.00
2019-02-22T01:47:40.641Z,0.00
2019-02-22T01:48:40.668Z,0.00
2019-02-22T01:49:40.628Z,0.00
2019-02-22T01:50:40.612Z,0.00
2019-02-22T01:51:40.631Z,0.00
2019-02-22T01:52:40.595Z,0.00
2019-02-22T01:53:40.581Z,0.00
2019-02-22T01:54:40.568Z,0.00
2019-02-22T01:55:40.553Z,0.00
2019-02-22T01:56:40.557Z,0.00
2019-02-22T01:57:40.574Z,0.00
2019-02-22T01:58:48.424Z,0.00
2019-02-22T01:59:41.506Z,0.00
2019-02-22T02:00:40.501Z,0.00
2019-02-22T02:01:40.491Z,0.00
2019-02-22T02:02:40.491Z,0.00
2019-02-22T02:03:40.506Z,0.00
2019-02-22T02:04:40.453Z,0.00
2019-02-22T02:05:40.441Z,0.00
2019-02-22T02:06:40.442Z,0.00
2019-02-22T02:07:40.427Z,0.00
2019-02-22T02:08:40.433Z,0.00
2019-02-22T02:09:40.446Z,0.00
2019-02-22T02:10:40.385Z,0.00
2019-02-22T02:11:40.378Z,0.00
2019-02-22T02:12:40.368Z,0.00
2019-02-22T02:13:40.378Z,0.00
2019-02-22T02:14:40.358Z,0.00
2019-02-22T02:15:40.366Z,0.00
2019-02-22T02:16:40.319Z,0.00
2019-02-22T02:17:40.312Z,0.00
2019-02-22T02:18:40.298Z,0.00
2019-02-22T02:19:40.287Z,0.00
2019-02-22T02:20:40.385Z,0.00
2019-02-22T02:21:40.311Z,0.00
2019-02-22T02:22:40.262Z,0.00
2019-02-22T02:23:40.252Z,0.00
2019-02-22T02:24:40.234Z,0.00
2019-02-22T02:25:40.221Z,0.00
2019-02-22T02:26:40.270Z,0.00
2019-02-22T02:27:40.387Z,0.00
2019-02-22T02:28:40.200Z,0.00
2019-02-22T02:29:40.175Z,0.00
2019-02-22T02:30:40.168Z,0.00
2019-02-22T02:31:40.192Z,0.00
2019-02-22T02:32:40.172Z,0.00
2019-02-22T02:33:40.191Z,0.00
2019-02-22T02:34:40.129Z,0.00
2019-02-22T02:35:40.159Z,0.00
2019-02-22T02:36:40.112Z,0.00
2019-02-22T02:37:40.085Z,0.00
2019-02-22T02:38:40.072Z,0.00
2019-02-22T02:39:40.107Z,0.00
2019-02-22T02:40:40.054Z,0.00
2019-02-22T02:41:40.062Z,0.00
2019-02-22T02:42:40.027Z,0.00
2019-02-22T02:43:40.030Z,0.00
2019-02-22T02:44:40.006Z,0.00
2019-02-22T02:45:40.068Z,0.00
2019-02-22T02:46:40.011Z,0.00
2019-02-22T02:47:39.975Z,0.00
2019-02-22T02:48:39.975Z,0.00
2019-02-22T02:49:39.959Z,0.00
2019-02-22T02:50:39.939Z,0.00
2019-02-22T02:51:39.964Z,0.00
2019-02-22T02:52:39.926Z,0.00
2019-02-22T02:53:39.950Z,0.00
2019-02-22T02:54:39.911Z,0.00
2019-02-22T02:55:39.920Z,0.00
2019-02-22T02:56:39.879Z,0.00
2019-02-22T02:57:39.925Z,0.00
2019-02-22T02:58:39.859Z,0.00
2019-02-22T02:59:39.839Z,0.00
2019-02-22T03:00:39.888Z,0.00
2019-02-22T03:01:39.821Z,0.00
2019-02-22T03:02:39.806Z,0.00
2019-02-22T03:03:39.846Z,0.00
2019-02-22T03:04:39.787Z,0.00
2019-02-22T03:05:39.785Z,0.00
2019-02-22T03:06:39.784Z,0.00
2019-02-22T03:07:39.755Z,0.00
2019-02-22T03:08:39.761Z,0.00
2019-02-22T03:09:39.764Z,0.00
2019-02-22T03:10:39.735Z,0.00
2019-02-22T03:11:39.703Z,0.00
2019-02-22T03:12:39.702Z,0.00
2019-02-22T03:13:39.700Z,0.00
2019-02-22T03:14:39.689Z,0.00
2019-02-22T03:15:39.700Z,0.00
2019-02-22T03:16:39.648Z,0.00
2019-02-22T03:17:39.644Z,0.00
2019-02-22T03:18:39.632Z,0.00
2019-02-22T03:19:39.621Z,0.00
2019-02-22T03:20:39.607Z,0.00
2019-02-22T03:21:39.632Z,0.00
2019-02-22T03:22:39.606Z,0.00
2019-02-22T03:23:39.584Z,0.00
2019-02-22T03:24:39.561Z,0.00
2019-02-22T03:25:39.574Z,0.00
2019-02-22T03:26:39.540Z,0.00
2019-02-22T03:27:39.594Z,0.00
2019-02-22T03:28:39.517Z,0.00
2019-02-22T03:29:39.513Z,0.00
2019-02-22T03:30:39.503Z,0.00
2019-02-22T03:31:39.485Z,0.00
2019-02-22T03:32:39.474Z,0.00
2019-02-22T03:33:39.516Z,0.00
2019-02-22T03:34:39.452Z,0.00
2019-02-22T03:35:39.443Z,0.00
2019-02-22T03:36:39.424Z,0.00
2019-02-22T03:37:39.417Z,0.00
2019-02-22T03:38:39.402Z,0.00
2019-02-22T03:39:39.462Z,0.00
2019-02-22T03:40:39.378Z,0.00
2019-02-22T03:41:39.371Z,0.00
2019-02-22T03:42:39.361Z,0.00
2019-02-22T03:43:39.352Z,0.00
2019-02-22T03:44:39.340Z,0.00
2019-02-22T03:45:39.381Z,0.00
2019-02-22T03:46:39.316Z,0.00
2019-02-22T03:47:39.357Z,0.00
2019-02-22T03:48:39.299Z,0.00
2019-02-22T03:49:39.282Z,0.00
2019-02-22T03:50:39.268Z,0.00
2019-02-22T03:51:39.338Z,0.00
2019-02-22T03:52:39.255Z,0.00
2019-02-22T03:53:39.240Z,0.00
2019-02-22T03:54:39.228Z,0.00
2019-02-22T03:55:39.213Z,0.00
2019-02-22T03:56:39.203Z,0.00
2019-02-22T03:57:39.240Z,0.00
2019-02-22T03:58:39.185Z,0.00
2019-02-22T03:59:39.170Z,0.00
2019-02-22T04:00:39.158Z,0.00
2019-02-22T04:01:39.152Z,0.00
2019-02-22T04:02:39.141Z,0.00
2019-02-22T04:03:39.159Z,0.00
2019-02-22T04:04:39.120Z,0.00
2019-02-22T04:05:39.106Z,0.00
2019-02-22T04:06:39.091Z,0.00
2019-02-22T04:07:39.080Z,0.00
2019-02-22T04:08:39.066Z,0.00
2019-02-22T04:09:39.099Z,0.00
2019-02-22T04:10:39.061Z,0.00
2019-02-22T04:11:45.631Z,0.00
2019-02-22T04:12:40.028Z,0.00
2019-02-22T04:13:39.031Z,0.00
2019-02-22T04:14:39.001Z,0.00
2019-02-22T04:15:39.036Z,0.00
2019-02-22T04:16:38.980Z,0.00
2019-02-22T04:17:38.977Z,0.00
2019-02-22T04:18:38.957Z,0.00
2019-02-22T04:19:38.950Z,0.00
2019-02-22T04:20:38.940Z,0.00
2019-02-22T04:21:38.969Z,0.00
2019-02-22T04:22:38.912Z,0.00
2019-02-22T04:23:38.909Z,0.00
2019-02-22T04:24:38.888Z,0.00
2019-02-22T04:25:38.876Z,0.00
2019-02-22T04:26:38.868Z,0.00
2019-02-22T04:27:38.927Z,0.00
2019-02-22T04:28:38.849Z,0.00
2019-02-22T04:29:38.883Z,0.00
2019-02-22T04:30:38.828Z,0.00
2019-02-22T04:31:38.823Z,0.00
2019-02-22T04:32:38.863Z,0.00
2019-02-22T04:33:38.827Z,0.00
2019-02-22T04:34:38.783Z,0.00
2019-02-22T04:35:38.773Z,0.00
2019-02-22T04:36:38.760Z,0.00
2019-02-22T04:37:38.787Z,0.00
2019-02-22T04:38:38.737Z,0.00
2019-02-22T04:39:38.765Z,0.00
2019-02-22T04:40:38.723Z,0.00
2019-02-22T04:41:38.705Z,0.00
2019-02-22T04:42:38.705Z,0.00
2019-02-22T04:43:38.701Z,0.00
2019-02-22T04:44:38.665Z,0.00
2019-02-22T04:45:38.712Z,0.00
2019-02-22T04:46:38.663Z,0.00
2019-02-22T04:47:38.634Z,0.00
2019-02-22T04:48:38.654Z,0.00
2019-02-22T04:49:38.609Z,0.00
2019-02-22T04:50:38.605Z,0.00
2019-02-22T04:51:38.770Z,0.00
2019-02-22T04:52:38.582Z,0.00
2019-02-22T04:53:38.566Z,0.00
2019-02-22T04:54:38.562Z,0.00
2019-02-22T04:55:38.564Z,0.00
2019-02-22T04:56:38.558Z,0.00
2019-02-22T04:57:38.560Z,0.00
2019-02-22T04:58:38.552Z,0.00
2019-02-22T04:59:38.500Z,0.00
2019-02-22T05:00:38.492Z,0.00
2019-02-22T05:01:38.479Z,0.00
2019-02-22T05:02:38.473Z,0.00
2019-02-22T05:03:38.488Z,0.00
2019-02-22T05:04:38.534Z,0.00
2019-02-22T05:05:38.436Z,0.00
2019-02-22T05:06:38.433Z,0.00
2019-02-22T05:07:38.421Z,0.00
2019-02-22T05:08:38.402Z,0.00
2019-02-22T05:09:38.457Z,0.00
2019-02-22T05:10:38.388Z,0.00
2019-02-22T05:11:38.372Z,0.00
2019-02-22T05:12:38.442Z,0.00
2019-02-22T05:13:38.354Z,0.00
2019-02-22T05:14:38.349Z,0.00
2019-02-22T05:15:38.366Z,0.00
2019-02-22T05:16:38.309Z,0.00
2019-02-22T05:17:38.305Z,0.00
2019-02-22T05:18:38.397Z,0.00
2019-02-22T05:19:38.304Z,0.00
2019-02-22T05:20:38.268Z,0.00
2019-02-22T05:21:38.310Z,0.00
2019-02-22T05:22:38.254Z,0.00
2019-02-22T05:23:38.232Z,0.00
2019-02-22T05:24:38.249Z,0.00
2019-02-22T05:25:38.214Z,0.00
2019-02-22T05:26:38.234Z,0.00
2019-02-22T05:27:38.254Z,0.00
2019-02-22T05:28:38.182Z,0.00
2019-02-22T05:29:38.173Z,0.00
2019-02-22T05:30:38.167Z,0.00
2019-02-22T05:31:38.144Z,0.00
2019-02-22T05:32:38.134Z,0.00
2019-02-22T05:33:38.167Z,0.00
2019-02-22T05:34:38.143Z,0.00
2019-02-22T05:35:38.127Z,0.00
2019-02-22T05:36:38.093Z,0.00
2019-02-22T05:37:38.077Z,0.00
2019-02-22T05:38:38.070Z,0.00
2019-02-22T05:39:38.342Z,0.00
2019-02-22T05:40:38.049Z,0.00
2019-02-22T05:41:38.039Z,0.00
2019-02-22T05:42:38.082Z,0.00
2019-02-22T05:43:38.024Z,0.00
2019-02-22T05:44:37.998Z,0.00
2019-02-22T05:45:38.025Z,0.00
2019-02-22T05:46:37.980Z,0.00
2019-02-22T05:47:38.019Z,0.00
2019-02-22T05:48:38.926Z,0.00
2019-02-22T05:49:38.037Z,0.00
2019-02-22T05:50:37.945Z,0.00
2019-02-22T05:51:37.958Z,0.00
2019-02-22T05:52:37.912Z,0.00
2019-02-22T05:53:37.947Z,0.00
2019-02-22T05:54:37.891Z,0.00
2019-02-22T05:55:37.878Z,0.00
2019-02-22T05:56:37.865Z,0.00
2019-02-22T05:57:37.904Z,0.00
2019-02-22T05:58:37.846Z,0.00
2019-02-22T05:59:37.889Z,0.00
2019-02-22T06:00:37.824Z,0.00
2019-02-22T06:01:37.815Z,0.00
2019-02-22T06:02:37.801Z,0.00
2019-02-22T06:03:37.850Z,0.00
2019-02-22T06:04:37.780Z,4.00
2019-02-22T06:05:37.769Z,0.00
2019-02-22T06:06:37.781Z,0.00
2019-02-22T06:07:37.748Z,4.00
2019-02-22T06:08:37.773Z,0.00
2019-02-22T06:09:37.770Z,4.00
2019-02-22T06:10:37.719Z,4.00
2019-02-22T06:11:37.699Z,4.00
2019-02-22T06:12:37.722Z,4.00
2019-02-22T06:13:37.686Z,8.00
2019-02-22T06:14:37.665Z,8.00
2019-02-22T06:15:37.707Z,8.00
2019-02-22T06:16:37.641Z,12.00
2019-02-22T06:17:37.630Z,12.00
2019-02-22T06:18:37.650Z,20.00
2019-02-22T06:19:37.609Z,20.00
2019-02-22T06:20:37.603Z,20.00
2019-02-22T06:21:37.621Z,32.00
2019-02-22T06:22:37.585Z,36.00
2019-02-22T06:23:37.566Z,40.00
2019-02-22T06:24:37.626Z,48.00
2019-02-22T06:25:37.544Z,48.00
2019-02-22T06:26:37.566Z,52.00
2019-02-22T06:27:37.585Z,64.00
2019-02-22T06:28:37.518Z,68.00
2019-02-22T06:29:37.517Z,76.00
2019-02-22T06:30:37.540Z,88.00
2019-02-22T06:31:37.476Z,100.00
2019-02-22T06:32:37.467Z,108.00
2019-02-22T06:33:37.485Z,112.00
2019-02-22T06:34:37.446Z,120.00
2019-02-22T06:35:37.435Z,132.00
2019-02-22T06:36:37.450Z,144.00
2019-02-22T06:37:37.421Z,160.00
2019-02-22T06:38:37.405Z,176.00
2019-02-22T06:39:37.444Z,192.00
2019-02-22T06:40:37.376Z,204.00
2019-02-22T06:41:37.367Z,220.00
2019-02-22T06:43:38.342Z,224.00
2019-02-22T06:44:37.331Z,216.00
2019-02-22T06:45:37.374Z,252.00
2019-02-22T06:46:37.317Z,268.00
2019-02-22T06:47:37.302Z,324.00
2019-02-22T06:48:37.334Z,344.00
2019-02-22T06:49:37.277Z,384.00
2019-02-22T06:50:37.265Z,428.00
2019-02-22T06:51:37.314Z,456.00
2019-02-22T06:52:37.243Z,476.00
2019-02-22T06:53:37.234Z,484.00
2019-02-22T06:54:37.264Z,500.00
2019-02-22T06:55:37.209Z,500.00
2019-02-22T06:56:37.200Z,552.00
2019-02-22T06:57:37.224Z,592.00
2019-02-22T06:58:37.219Z,688.00
2019-02-22T06:59:37.165Z,732.00
2019-02-22T07:00:37.192Z,796.00
2019-02-22T07:01:37.143Z,884.00
2019-02-22T07:02:37.132Z,824.00
2019-02-22T07:03:37.174Z,756.00
2019-02-22T07:04:37.121Z,764.00
2019-02-22T07:05:37.100Z,788.00
2019-02-22T07:06:37.118Z,856.00
2019-02-22T07:07:37.077Z,824.00
2019-02-22T07:08:37.076Z,876.00
2019-02-22T07:09:37.086Z,976.00
2019-02-22T07:10:37.049Z,1116.00
2019-02-22T07:11:37.910Z,1248.00
2019-02-22T07:12:37.096Z,1356.00
2019-02-22T07:13:37.026Z,1344.00
2019-02-22T07:14:37.023Z,1292.00
2019-02-22T07:15:37.043Z,1424.00
2019-02-22T07:16:36.987Z,1564.00
2019-02-22T07:17:36.993Z,1572.00
2019-02-22T07:18:36.963Z,1560.00
2019-02-22T07:19:36.955Z,1452.00
2019-02-22T07:20:36.964Z,1388.00
2019-02-22T07:21:51.476Z,1424.00
2019-02-22T07:22:37.911Z,1404.00
2019-02-22T07:23:36.902Z,1348.00
2019-02-22T07:24:36.890Z,1360.00
2019-02-22T07:25:36.986Z,1372.00
2019-02-22T07:26:36.910Z,1340.00
2019-02-22T07:27:36.917Z,1364.00
2019-02-22T07:28:36.854Z,1416.00
2019-02-22T07:29:36.836Z,1440.00
2019-02-22T07:30:36.827Z,1376.00
2019-02-22T07:31:36.821Z,1308.00
2019-02-22T07:32:36.801Z,1216.00
2019-02-22T07:33:36.855Z,1308.00
2019-02-22T07:34:36.796Z,1472.00
2019-02-22T07:35:36.785Z,1460.00
2019-02-22T07:36:36.767Z,1484.00
2019-02-22T07:37:36.750Z,1484.00
2019-02-22T07:38:36.741Z,1412.00
2019-02-22T07:39:36.808Z,1424.00
2019-02-22T07:40:36.724Z,1544.00
2019-02-22T07:41:36.704Z,1672.00
2019-02-22T07:42:36.719Z,1772.00
2019-02-22T07:43:36.684Z,1852.00
2019-02-22T07:44:36.669Z,1900.00
2019-02-22T07:45:36.706Z,1844.00
2019-02-22T07:46:36.653Z,1836.00
2019-02-22T07:47:36.652Z,1892.00
2019-02-22T07:48:36.625Z,2012.00
2019-02-22T07:49:36.614Z,2008.00
2019-02-22T07:50:36.603Z,1884.00
2019-02-22T07:51:36.641Z,1772.00
2019-02-22T07:52:36.585Z,1640.00
2019-02-22T07:53:36.639Z,1688.00
2019-02-22T07:54:36.561Z,1756.00
2019-02-22T07:55:36.551Z,1776.00
2019-02-22T07:56:36.537Z,1776.00
2019-02-22T07:57:36.559Z,1744.00
2019-02-22T07:58:36.517Z,1948.00
2019-02-22T07:59:36.571Z,1884.00
2019-02-22T08:00:36.530Z,1944.00
2019-02-22T08:01:46.873Z,2060.00
2019-02-22T08:02:37.521Z,2028.00
2019-02-22T08:03:37.434Z,2148.00
2019-02-22T08:04:36.495Z,2300.00
2019-02-22T08:05:36.444Z,2392.00
2019-02-22T08:06:36.470Z,2440.00
2019-02-22T08:07:36.414Z,2424.00
2019-02-22T08:08:36.455Z,2456.00
2019-02-22T08:09:36.399Z,2376.00
2019-02-22T08:10:36.387Z,2304.00
2019-02-22T08:11:36.374Z,2272.00
2019-02-22T08:12:36.405Z,2240.00
2019-02-22T08:13:36.350Z,2364.00
2019-02-22T08:14:36.382Z,2200.00
2019-02-22T08:15:36.330Z,2072.00
2019-02-22T08:16:36.316Z,2012.00
2019-02-22T08:17:36.310Z,1976.00
2019-02-22T08:18:36.335Z,2020.00
2019-02-22T08:19:36.285Z,2036.00
2019-02-22T08:20:36.577Z,2116.00
2019-02-22T08:21:36.261Z,2164.00
2019-02-22T08:22:36.251Z,2132.00
2019-02-22T08:23:36.248Z,2032.00
2019-02-22T08:24:36.284Z,2072.00
2019-02-22T08:25:36.277Z,2208.00
2019-02-22T08:26:36.258Z,2312.00
2019-02-22T08:27:36.197Z,2236.00
2019-02-22T08:28:36.189Z,2324.00
2019-02-22T08:29:38.213Z,2360.00
2019-02-22T08:30:36.177Z,2364.00
2019-02-22T08:31:36.193Z,2392.00
2019-02-22T08:32:36.187Z,2408.00
2019-02-22T08:33:36.133Z,2488.00
2019-02-22T08:34:36.134Z,2648.00
2019-02-22T08:35:36.112Z,2412.00
2019-02-22T08:36:36.121Z,2432.00
2019-02-22T08:37:36.085Z,2400.00
2019-02-22T08:38:36.123Z,2844.00
2019-02-22T08:39:36.064Z,2660.00
2019-02-22T08:40:36.061Z,2488.00
2019-02-22T08:41:36.068Z,2588.00
2019-02-22T08:42:36.041Z,2696.00
2019-02-22T08:43:36.024Z,2712.00
2019-02-22T08:44:36.109Z,2804.00
2019-02-22T08:45:36.002Z,2912.00
2019-02-22T08:46:35.997Z,2768.00
2019-02-22T08:47:35.991Z,2660.00
2019-02-22T08:48:35.966Z,2760.00
2019-02-22T08:49:35.975Z,2824.00
2019-02-22T08:50:35.986Z,3008.00
2019-02-22T08:51:35.942Z,3252.00
2019-02-22T08:52:35.935Z,3112.00
2019-02-22T08:53:35.924Z,3252.00
2019-02-22T08:54:46.527Z,3428.00
2019-02-22T08:55:37.244Z,3488.00
2019-02-22T08:56:35.961Z,3412.00
2019-02-22T08:57:35.886Z,3292.00
2019-02-22T08:58:35.860Z,3496.00
2019-02-22T08:59:35.849Z,3820.00
2019-02-22T09:00:35.845Z,3972.00
2019-02-22T09:01:35.892Z,4256.00
2019-02-22T09:02:35.832Z,4368.00
2019-02-22T09:03:35.882Z,4340.00
2019-02-22T09:04:35.818Z,4476.00
2019-02-22T09:05:35.824Z,4448.00
2019-02-22T09:06:35.811Z,4384.00
2019-02-22T09:07:35.823Z,4484.00
2019-02-22T09:08:35.795Z,4372.00
2019-02-22T09:09:35.749Z,4572.00
2019-02-22T09:10:35.734Z,4528.00
2019-02-22T09:11:35.733Z,4528.00
2019-02-22T09:12:35.704Z,4412.00
2019-02-22T09:13:43.533Z,4376.00
2019-02-22T09:14:36.698Z,4280.00
2019-02-22T09:15:35.671Z,4608.00
2019-02-22T09:16:35.664Z,4588.00
2019-02-22T09:17:35.661Z,4752.00
2019-02-22T09:18:35.640Z,4944.00
2019-02-22T09:19:35.714Z,4644.00
2019-02-22T09:20:35.627Z,4328.00
2019-02-22T09:21:35.608Z,4996.00
2019-02-22T09:22:35.605Z,5236.00
2019-02-22T09:23:35.586Z,5508.00
2019-02-22T09:24:35.571Z,4896.00
2019-02-22T09:25:35.609Z,4520.00
2019-02-22T09:26:35.550Z,4548.00
2019-02-22T09:27:35.537Z,4476.00
2019-02-22T09:28:35.526Z,4976.00
2019-02-22T09:29:35.518Z,5008.00
2019-02-22T09:30:35.513Z,5244.00
2019-02-22T09:31:35.540Z,5396.00
2019-02-22T09:32:35.497Z,5352.00
2019-02-22T09:33:35.483Z,5384.00
2019-02-22T09:34:35.487Z,5144.00
2019-02-22T09:35:35.902Z,5940.00
2019-02-22T09:36:35.440Z,6752.00
2019-02-22T09:37:35.563Z,6588.00
2019-02-22T09:38:35.420Z,7032.00
2019-02-22T09:39:35.434Z,7316.00
2019-02-22T09:40:35.420Z,7460.00
2019-02-22T09:41:35.390Z,7364.00
2019-02-22T09:42:35.376Z,8696.00
2019-02-22T09:43:35.412Z,8332.00
2019-02-22T09:44:35.353Z,7900.00
2019-02-22T09:45:35.390Z,8304.00
2019-02-22T09:46:35.329Z,8828.00
2019-02-22T09:47:35.320Z,9824.00
2019-02-22T09:48:35.394Z,10020.00
2019-02-22T09:49:35.343Z,11300.00
2019-02-22T09:50:35.285Z,11540.00
2019-02-22T09:51:35.292Z,12536.00
2019-02-22T09:52:35.265Z,12920.00
2019-02-22T09:53:35.266Z,12652.00
2019-02-22T09:54:35.258Z,11260.00
2019-02-22T09:55:35.283Z,11060.00
2019-02-22T09:56:35.218Z,12552.00
2019-02-22T09:57:35.210Z,11844.00
2019-02-22T09:58:35.194Z,11300.00
2019-02-22T09:59:35.183Z,10240.00
2019-02-22T10:00:35.211Z,10216.00
2019-02-22T10:01:35.199Z,8920.00
2019-02-22T10:02:35.150Z,9024.00
2019-02-22T10:03:35.139Z,10968.00
2019-02-22T10:04:35.127Z,11520.00
2019-02-22T10:05:35.117Z,11200.00
2019-02-22T10:06:35.132Z,13068.00
2019-02-22T10:07:35.133Z,13380.00
2019-02-22T10:08:35.081Z,12924.00
2019-02-22T10:09:35.076Z,13388.00
2019-02-22T10:10:35.066Z,15604.00
2019-02-22T10:11:35.048Z,17664.00
2019-02-22T10:12:35.054Z,16128.00
2019-02-22T10:13:35.056Z,15496.00
2019-02-22T10:14:35.018Z,16492.00
2019-02-22T10:15:35.003Z,14044.00
2019-02-22T10:16:34.992Z,12100.00
2019-02-22T10:17:34.978Z,12324.00
2019-02-22T10:18:35.009Z,13064.00
2019-02-22T10:19:35.116Z,13860.00
2019-02-22T10:20:34.945Z,13268.00
2019-02-22T10:21:34.933Z,11536.00
2019-02-22T10:22:34.922Z,12032.00
2019-02-22T10:23:34.910Z,12636.00
2019-02-22T10:24:34.927Z,11952.00
2019-02-22T10:25:34.964Z,10324.00
2019-02-22T10:26:34.876Z,10628.00
2019-02-22T10:27:34.869Z,11776.00
2019-02-22T10:28:34.860Z,11676.00
2019-02-22T10:29:34.846Z,11028.00
2019-02-22T10:30:34.880Z,10304.00
2019-02-22T10:31:34.857Z,10708.00
2019-02-22T10:32:34.813Z,10508.00
2019-02-22T10:33:36.849Z,10904.00
2019-02-22T10:34:34.795Z,10988.00
2019-02-22T10:35:34.782Z,11112.00
2019-02-22T10:36:44.673Z,10508.00
2019-02-22T10:37:35.810Z,9244.00
2019-02-22T10:38:35.969Z,7796.00
2019-02-22T10:39:34.740Z,7168.00
2019-02-22T10:40:34.719Z,8132.00
2019-02-22T10:41:34.710Z,9144.00
2019-02-22T10:42:34.695Z,10292.00
2019-02-22T10:43:34.754Z,10784.00
2019-02-22T10:44:34.732Z,10184.00
2019-02-22T10:45:36.824Z,9964.00
2019-02-22T10:46:34.738Z,10012.00
2019-02-22T10:47:34.640Z,10516.00
2019-02-22T10:48:34.629Z,10480.00
2019-02-22T10:49:34.660Z,10256.00
2019-02-22T10:50:34.633Z,10448.00
2019-02-22T10:51:34.594Z,10832.00
2019-02-22T10:52:34.597Z,11000.00
2019-02-22T10:53:34.572Z,10884.00
2019-02-22T10:54:34.562Z,10728.00
2019-02-22T10:55:34.715Z,10792.00
2019-02-22T10:56:34.562Z,11164.00
2019-02-22T10:57:34.525Z,11728.00
2019-02-22T10:58:34.516Z,12032.00
2019-02-22T10:59:34.507Z,11872.00
2019-02-22T11:00:34.497Z,11480.00
2019-02-22T11:01:34.530Z,11196.00
2019-02-22T11:02:34.517Z,11048.00
2019-02-22T11:03:34.457Z,10504.00
2019-02-22T11:04:34.458Z,9600.00
2019-02-22T11:05:34.441Z,8660.00
2019-02-22T11:06:34.453Z,7832.00
2019-02-22T11:07:36.990Z,7320.00
2019-02-22T11:08:34.401Z,7524.00
2019-02-22T11:09:34.530Z,8412.00
2019-02-22T11:10:34.412Z,9480.00
2019-02-22T11:11:34.378Z,10508.00
2019-02-22T11:12:34.358Z,11084.00
2019-02-22T11:13:34.415Z,11704.00
2019-02-22T11:14:34.331Z,12628.00
2019-02-22T11:15:34.327Z,13380.00
2019-02-22T11:16:34.347Z,13736.00
2019-02-22T11:17:34.295Z,13972.00
2019-02-22T11:18:34.287Z,13896.00
2019-02-22T11:19:34.326Z,13536.00
2019-02-22T11:20:34.263Z,13184.00
2019-02-22T11:21:34.318Z,12960.00
2019-02-22T11:22:34.241Z,12988.00
2019-02-22T11:23:34.229Z,13112.00
2019-02-22T11:24:34.217Z,12924.00
2019-02-22T11:25:34.260Z,12516.00
2019-02-22T11:26:34.195Z,11812.00
2019-02-22T11:27:34.215Z,11456.00
2019-02-22T11:28:34.176Z,11624.00
2019-02-22T11:29:34.164Z,12160.00
2019-02-22T11:30:34.150Z,13180.00
2019-02-22T11:31:34.180Z,14328.00
2019-02-22T11:32:34.138Z,15120.00
2019-02-22T11:33:34.137Z,15260.00
2019-02-22T11:34:34.105Z,15032.00
2019-02-22T11:35:34.094Z,14484.00
2019-02-22T11:36:34.104Z,13828.00
2019-02-22T11:37:34.107Z,13764.00
2019-02-22T11:38:34.114Z,13548.00
2019-02-22T11:39:34.071Z,13240.00
2019-02-22T11:40:34.049Z,13000.00
2019-02-22T11:41:34.029Z,12904.00
2019-02-22T11:42:34.019Z,13680.00
2019-02-22T11:43:34.042Z,14436.00
2019-02-22T11:44:40.271Z,15128.00
2019-02-22T11:45:35.034Z,15588.00
2019-02-22T11:46:33.990Z,15772.00
2019-02-22T11:47:33.964Z,16152.00
2019-02-22T11:48:33.956Z,16932.00
2019-02-22T11:49:33.974Z,17792.00
2019-02-22T11:50:33.935Z,18112.00
2019-02-22T11:51:33.949Z,18080.00
2019-02-22T11:52:33.911Z,18112.00
2019-02-22T11:53:33.897Z,18144.00
2019-02-22T11:54:33.888Z,18048.00
2019-02-22T11:55:33.921Z,18016.00
2019-02-22T11:56:33.875Z,18304.00
2019-02-22T11:57:33.875Z,18752.00
2019-02-22T11:58:33.837Z,18976.00
2019-02-22T11:59:33.832Z,19168.00
2019-02-22T12:00:33.817Z,19424.00
2019-02-22T12:01:33.859Z,19904.00
2019-02-22T12:02:33.801Z,20192.00
2019-02-22T12:03:33.826Z,19776.00
2019-02-22T12:04:33.775Z,19232.00
2019-02-22T12:05:33.762Z,18880.00
2019-02-22T12:06:33.765Z,18464.00
2019-02-22T12:07:33.780Z,17696.00
2019-02-22T12:08:33.839Z,16728.00
2019-02-22T12:09:33.736Z,16688.00
2019-02-22T12:10:33.716Z,21408.00
2019-02-22T12:11:33.693Z,21280.00
2019-02-22T12:12:33.692Z,20064.00
2019-02-22T12:13:33.708Z,18848.00
2019-02-22T12:14:33.783Z,18112.00
2019-02-22T12:15:34.658Z,17696.00
2019-02-22T12:16:33.641Z,18880.00
2019-02-22T12:17:33.631Z,19616.00
2019-02-22T12:18:33.635Z,18240.00
2019-02-22T12:19:33.667Z,19008.00
2019-02-22T12:20:33.599Z,19072.00
2019-02-22T12:21:33.605Z,13728.00
2019-02-22T12:22:33.586Z,13796.00
2019-02-22T12:23:33.587Z,16140.00
2019-02-22T12:24:33.554Z,16680.00
2019-02-22T12:25:33.691Z,13776.00
2019-02-22T12:26:33.533Z,12616.00
2019-02-22T12:27:33.527Z,13244.00
2019-02-22T12:28:33.519Z,14696.00
2019-02-22T12:29:33.535Z,15692.00
2019-02-22T12:30:33.491Z,15324.00
2019-02-22T12:31:33.529Z,15456.00
2019-02-22T12:32:33.469Z,16048.00
2019-02-22T12:33:33.461Z,15588.00
2019-02-22T12:34:33.439Z,20608.00
2019-02-22T12:35:33.459Z,20928.00
2019-02-22T12:36:33.543Z,21280.00
2019-02-22T12:37:33.495Z,17984.00
2019-02-22T12:38:33.397Z,17344.00